Flight Track Log - Related Links

Times and Time Zones

All times are in EDT time to prevent confusion due to time zone crossing. See the SWA1446 flight status page for this flight to view local times or setup timezone preferences in your user account.

Time Position Orientation Groundspeed Altitude Reporting Facility
EDT Latitude Longitude Course Direction KTS MPH feet Rate Location/Type
Sun 03:58:27 PM 39.1008 -76.6161 284° West 181 208 4,000  Level Washington Center
Sun 03:59:27 PM 39.0889 -76.5436 102° East 191 220 6,700 3,067 Climbing Washington Center
Sun 04:01:25 PM 39.1278 -76.3408 76° East 241 277 13,100 3,270 Climbing Washington Center
Sun 04:02:25 PM 39.1492 -76.2233 77° East 312 359 16,400 2,777 Climbing Washington Center
Sun 04:03:00 PM 39.1605 -76.6025 284° West  Level FlightAware Approximate
Sun 04:03:26 PM 39.1667 -76.1056 79° East 346 398 18,700  Level Washington Center
Sun 04:04:27 PM 39.1817 -75.9719 82° East 364 419 21,300 2,479 Climbing Washington Center
Sun 04:05:27 PM 39.2194 -75.8461 69° East 371 427 23,700 2,390 Climbing Washington Center
Sun 04:06:25 PM 39.2989 -75.7444 45° Northeast 371 427 26,000 2,067 Climbing Washington Center
Sun 04:07:26 PM 39.3781 -75.6400 46° Northeast 386 444 27,800 1,636 Climbing Washington Center
Sun 04:08:26 PM 39.4636 -75.5297 45° Northeast 409 471 29,300 1,587 Climbing Washington Center
Sun 04:09:27 PM 39.5508 -75.4167 45° Northeast 426 490 31,000 1,652 Climbing Washington Center
Sun 04:11:53 PM 39.7664 -75.1217 46° Northeast 451 519 35,000 1,165 Climbing New York Center
Sun 04:12:53 PM 39.8436 -75.0103 48° Northeast 434 499 35,000  Level New York Center
Sun 04:13:55 PM 39.9247 -74.8961 47° Northeast 423 487 35,000  Level New York Center
Sun 04:14:53 PM 40.0078 -74.7872 45° Northeast 432 497 35,000  Level New York Center
Sun 04:15:54 PM 40.0867 -74.6722 48° Northeast 426 490 35,000  Level New York Center
Sun 04:16:55 PM 40.1631 -74.5597 48° Northeast 419 482 35,000  Level New York Center
Sun 04:17:55 PM 40.2372 -74.4606 46° Northeast 419 482 35,000  Level New York Center
Sun 04:18:55 PM 40.3278 -74.3619 40° Northeast 414 476 35,000  Level New York Center
Sun 04:19:53 PM 40.4161 -74.2631 40° Northeast 414 476 35,000  Level New York Center
Sun 04:22:02 PM 40.5931 -74.0089 47° Northeast 416 479 35,000  Level Boston Center
Sun 04:23:02 PM 40.6675 -73.8931 50° Northeast 416 479 35,000  Level Boston Center
Sun 04:24:02 PM 40.7442 -73.7742 50° Northeast 416 479 35,000  Level Boston Center
Sun 04:25:02 PM 40.8161 -73.6550 51° Northeast 416 479 35,000  Level Boston Center
Sun 04:26:02 PM 40.8903 -73.5411 49° Northeast 411 473 35,000  Level Boston Center
Sun 04:27:02 PM 40.9644 -73.4269 49° Northeast 406 467 35,000 -450 Level Boston Center
Sun 04:28:02 PM 41.0361 -73.3206 48° Northeast 400 460 34,100 -950 Descending Boston Center
Sun 04:29:02 PM 41.1100 -73.2058 49° Northeast 394 453 33,100 -950 Descending Boston Center
Sun 04:30:02 PM 41.1772 -73.0881 53° Northeast 400 460 32,200 -950 Descending Boston Center
Sun 04:31:02 PM 41.2364 -72.9617 58° Northeast 400 460 31,200 -600 Descending Boston Center
Sun 04:32:02 PM 41.2908 -72.8489 57° Northeast 400 460 31,000 -100 Descending Boston Center
Sun 04:33:02 PM 41.3517 -72.7194 58° Northeast 400 460 31,000  Level Boston Center
Sun 04:34:02 PM 41.4125 -72.5894 58° Northeast 410 472 31,000  Level Boston Center
Sun 04:35:02 PM 41.4689 -72.4622 59° Northeast 410 472 31,000  Level Boston Center
Sun 04:36:02 PM 41.5272 -72.3319 59° Northeast 410 472 31,000  Level Boston Center
Sun 04:37:02 PM 41.5936 -72.1931 57° Northeast 410 472 31,000  Level Boston Center
Sun 04:38:02 PM 41.6517 -72.0650 59° Northeast 410 472 31,000  Level Boston Center
Sun 04:39:02 PM 41.7114 -71.9339 59° Northeast 410 472 31,000  Level Boston Center
Sun 04:40:02 PM 41.7714 -71.8028 58° Northeast 410 472 31,000  Level Boston Center
Sun 04:42:02 PM 41.8861 -71.5394 60° Northeast 410 472 31,000  Level Boston Center
Sun 04:43:02 PM 41.9350 -71.4019 64° Northeast 410 472 31,000  Level Boston Center
Sun 04:44:02 PM 42.0047 -71.2778 53° Northeast 410 472 31,000  Level Boston Center
Sun 04:45:02 PM 42.0933 -71.1756 41° Northeast 401 461 31,000 -200 Level Boston Center
Sun 04:46:02 PM 42.1817 -71.0756 40° Northeast 406 467 30,600 -1,300 Descending Boston Center
Sun 04:47:02 PM 42.2658 -70.9756 41° Northeast 412 474 28,400 -2,250 Descending Boston Center
Sun 04:48:02 PM 42.3522 -70.8753 41° Northeast 405 466 26,100 -2,150 Descending Boston Center
Sun 04:49:02 PM 42.4319 -70.7806 41° Northeast 395 455 24,100 -1,050 Descending Boston Center
Sun 04:50:02 PM 42.5333 -70.7214 23° Northeast 389 448 24,000 -650 Descending Boston Center
Sun 04:51:02 PM 42.6367 -70.6650 22° Northeast 384 442 22,800 -1,650 Descending Boston Center
Sun 04:52:02 PM 42.7358 -70.6056 24° Northeast 390 449 20,700 -2,000 Descending Boston Center
Sun 04:53:02 PM 42.8286 -70.5489 24° Northeast 385 443 18,800 -1,800 Descending Boston Center
Sun 04:54:02 PM 42.9111 -70.4953 25° Northeast 363 418 17,100 -2,100 Descending Boston Center
Sun 04:55:02 PM 43.0119 -70.4297 25° Northeast 363 418 14,600 -2,200 Descending Boston Center
Sun 04:56:02 PM 43.0900 -70.3647 31° Northeast 358 412 12,700 -1,850 Descending Boston Center
Sun 04:57:02 PM 43.1803 -70.2875 32° Northeast 352 405 10,900 -1,300 Descending Boston Center
Sun 04:58:02 PM 43.2461 -70.2311 32° Northeast 318 366 10,100 -1,350 Descending Boston Center
Sun 04:59:02 PM 43.3289 -70.2108 10° North 277 319 8,200 -1,900 Descending Boston Center
Sun 05:00:02 PM 43.3997 -70.2056 North 277 319 6,300 -1,750 Descending Boston Center
Sun 05:01:02 PM 43.4808 -70.1911 North 272 313 4,700 -1,350 Descending Boston Center
Sun 05:02:02 PM 43.5450 -70.1742 11° North 267 307 3,600 -950 Descending Boston Center
Sun 05:03:02 PM 43.6075 -70.1661 North 257 296 2,800 -750 Descending Boston Center
Sun 05:04:02 PM 43.6519 -70.2047 328° Northwest 178 205 2,100 -1,050 Descending Boston Center
Sun 05:05:02 PM 43.6486 -70.2564 265° West 125 144 700 4,450 Descending Boston Center
Sun 05:06:02 PM 43.6453 -70.2997 264° West 125 144 11,000 5,150 Climbing Boston Center
Sun 05:07:02 PM 43.6464 -70.3542 272° West 125 144 11,000  Level Boston Center
Sun 05:08:02 PM 43.6472 -70.4058 271° West 125 144 11,000  Level Boston Center
Sun 05:10:02 PM 43.6492 -70.5061 272° West 125 144 11,000  Level Boston Center
Sun 05:12:00 PM 43.6333 -70.3000 101° East  Level FlightAware Approximate
Sun 05:19:00 PM 43.6456 -70.3086 101° East  Level Estimated
Sun 05:20:00 PM 43.6456 -70.3086 101° East  Level Estimated
Sun 05:21:00 PM 43.6456 -70.3086 101° East  Level Estimated

Login

Don't have an account? Register now (free) for customized features, flight alerts, and more!